Floresville, TX

4:42 PM CDT on September 01, 2014 (GMT -0500)
Texas coastal Plain haypatch | Change Station
CLOSE
Current Station
Personal Weather Station
Location: Floresville, TX
Elevation: 499 ft
Nearby Weather Stations

Elev 499 ft 29.21 °N, 98.23 °W | Updated 10 minutes ago

Partly Cloudy
Partly Cloudy
97.5 °F
Feels Like 105 °F
N
3.0
Wind Variable Wind from SSW
Gusts 12.0 mph

Today
High -- | Low -- °F
--% Chance of Precip.
Yesterday
High -- | Low -- °F
Precip. -- in
7:10 AM 7:54 PM
Waxing Crescent, 44% visible
Pressure 29.80 in
Visibility 10.0 miles
Clouds Few 8500 ft
Heat Index 105 °F
Dew Point 70 °F
Humidity 41%
Rainfall 0.00 in
Snow Depth Not available.
UV 7 out of 12
Pollen 9.90 out of 12
Ozone Good
PM2.5 Good
Flu Activity Not available.
METAR KSSF 012053Z AUTO 17013G18KT 10SM FEW085 37/19 A2984 RMK AO2 SLP090 T03670189 58022

More Conditions Fewer Conditions

Pressure 29.80 in
Visibility 10.0 miles
Clouds Few 8500 ft
Heat Index 105 °F
Dew Point 70 °F
Humidity 41%
Rainfall 0.00 in
Snow Depth Not available.
UV 7 out of 12
Pollen 9.90 out of 12
Ozone Good
PM2.5 Good
Flu Activity Not available.
METAR KSSF 012053Z AUTO 17013G18KT 10SM FEW085 37/19 A2984 RMK AO2 SLP090 T03670189 58022

More Conditions Fewer Conditions

Nowcast | as of 3:47 PM CDT on September 1, 2014

Through 5 PM...isolated showers will move north at 20 mph. Spotty rainfall amounts up to one quarter inch are expected.

×

10-Day Weather Forecast

Almanac

Astronomy

Sep. 01, 2014 Rise Set
Actual Time 7:10 AM CDT 7:54 PM CDT
Civil Twilight 6:46 AM CDT 8:18 PM CDT
Nautical Twilight 6:17 AM CDT 8:46 PM CDT
Astronomical Twilight 5:48 AM CDT 9:15 PM CDT
Moon 1:26 PM CDT No Moon Set
Length of Visible Light 13h 32m
Length of Day
12h 44m
Tomorrow will be 1m 41s shorter.
Waxing Crescent, 44% of the Moon is Illuminated
Today
Waxing Crescent
Sep 2
First Quarter
Sep 8
Full
Sep 15
Last Quarter
Sep 24
New

Today's Extremes

State Highs State Lows

Community

WunderPhotos

Upload Photos

1,749,417 photos uploaded!

WunderBlogs® & News

Nearby

Air Quality

  Air Quality AQ Index Pollutant
Yesterday Good
PM2.5
Yesterday Good
OZONE
Current Good
OZONE
Current Good
PM2.5
Monday Good
OZONE
Monday Good
PM10
Tuesday Good
OZONE
Tuesday Good
PM10
Wednesday Good
OZONE
Wednesday Good
PM10
Thursday Good
OZONE
Thursday Good
PM10

Snow Depth

Station Depth Elevation
No new snow has been reported.

Earthquake Activity

City Distance Mag. Time & Date
No recent earthquake activity has been reported nearby.
Minimum magnitude displayed is 2.5.

Coastal Water Temperatures

Place Temperature
No Stations Reporting

Nearby Weather Stations